sensor_id;sensor_type;location;lat;lon;timestamp;pressure;altitude;pressure_sealevel;temperature;humidity
44044;BME280;29709;52.396;16.796;2023-05-20T00:02:03;102831.45;;;13.54;80.01
44044;BME280;29709;52.396;16.796;2023-05-20T00:05:16;102834.83;;;13.57;80.22
44044;BME280;29709;52.396;16.796;2023-05-20T00:08:29;102828.67;;;13.54;79.96
44044;BME280;29709;52.396;16.796;2023-05-20T00:11:43;102828.56;;;13.55;80.02
44044;BME280;29709;52.396;16.796;2023-05-20T00:14:56;102817.53;;;13.55;79.66
44044;BME280;29709;52.396;16.796;2023-05-20T00:18:09;102817.09;;;13.60;80.15
44044;BME280;29709;52.396;16.796;2023-05-20T00:21:22;102822.62;;;13.60;80.00
44044;BME280;29709;52.396;16.796;2023-05-20T00:24:36;102816.50;;;13.56;80.92
44044;BME280;29709;52.396;16.796;2023-05-20T00:27:49;102819.55;;;13.63;80.54
44044;BME280;29709;52.396;16.796;2023-05-20T00:31:02;102813.73;;;13.56;81.24
44044;BME280;29709;52.396;16.796;2023-05-20T00:34:16;102804.69;;;13.54;80.98
44044;BME280;29709;52.396;16.796;2023-05-20T00:37:29;102803.95;;;13.52;81.51
44044;BME280;29709;52.396;16.796;2023-05-20T00:40:42;102809.23;;;13.55;80.59
44044;BME280;29709;52.396;16.796;2023-05-20T00:43:55;102813.41;;;13.50;80.64
44044;BME280;29709;52.396;16.796;2023-05-20T00:47:09;102814.72;;;13.46;80.65
44044;BME280;29709;52.396;16.796;2023-05-20T00:50:22;102810.31;;;13.43;81.43
44044;BME280;29709;52.396;16.796;2023-05-20T00:53:35;102802.75;;;13.36;81.44
44044;BME280;29709;52.396;16.796;2023-05-20T00:56:49;102812.16;;;13.33;81.82
44044;BME280;29709;52.396;16.796;2023-05-20T01:00:04;102808.95;;;13.28;81.82
44044;BME280;29709;52.396;16.796;2023-05-20T01:03:20;102811.12;;;13.24;82.50
44044;BME280;29709;52.396;16.796;2023-05-20T01:06:34;102802.06;;;13.22;82.16
44044;BME280;29709;52.396;16.796;2023-05-20T01:09:49;102803.56;;;13.26;81.89
44044;BME280;29709;52.396;16.796;2023-05-20T01:13:10;102801.67;;;13.27;82.42
44044;BME280;29709;52.396;16.796;2023-05-20T01:16:28;102802.55;;;13.27;81.96
44044;BME280;29709;52.396;16.796;2023-05-20T01:19:43;102802.41;;;13.29;82.19
44044;BME280;29709;52.396;16.796;2023-05-20T01:22:57;102799.65;;;13.29;81.81
44044;BME280;29709;52.396;16.796;2023-05-20T01:26:10;102798.18;;;13.25;82.60
44044;BME280;29709;52.396;16.796;2023-05-20T01:29:26;102799.35;;;13.32;81.59
44044;BME280;29709;52.396;16.796;2023-05-20T01:32:47;102798.09;;;13.36;81.87
44044;BME280;29709;52.396;16.796;2023-05-20T01:36:02;102794.18;;;13.39;81.55
44044;BME280;29709;52.396;16.796;2023-05-20T01:39:17;102797.95;;;13.38;81.02
44044;BME280;29709;52.396;16.796;2023-05-20T01:42:31;102800.56;;;13.39;81.68
44044;BME280;29709;52.396;16.796;2023-05-20T01:45:45;102794.51;;;13.45;80.78
44044;BME280;29709;52.396;16.796;2023-05-20T01:48:58;102794.62;;;13.44;80.80
44044;BME280;29709;52.396;16.796;2023-05-20T01:52:11;102791.86;;;13.44;80.66
44044;BME280;29709;52.396;16.796;2023-05-20T01:55:24;102790.25;;;13.41;80.72
44044;BME280;29709;52.396;16.796;2023-05-20T01:58:38;102785.01;;;13.38;80.44
44044;BME280;29709;52.396;16.796;2023-05-20T02:01:51;102780.03;;;13.32;80.97
44044;BME280;29709;52.396;16.796;2023-05-20T02:05:04;102780.31;;;13.29;80.56
44044;BME280;29709;52.396;16.796;2023-05-20T02:08:17;102784.83;;;13.30;80.67
44044;BME280;29709;52.396;16.796;2023-05-20T02:11:31;102784.83;;;13.30;80.29
44044;BME280;29709;52.396;16.796;2023-05-20T02:14:45;102774.50;;;13.32;80.65
44044;BME280;29709;52.396;16.796;2023-05-20T02:17:59;102787.18;;;13.35;80.06
44044;BME280;29709;52.396;16.796;2023-05-20T02:21:13;102776.82;;;13.27;80.36
44044;BME280;29709;52.396;16.796;2023-05-20T02:24:27;102777.98;;;13.24;80.17
44044;BME280;29709;52.396;16.796;2023-05-20T02:27:40;102772.85;;;13.20;80.96
44044;BME280;29709;52.396;16.796;2023-05-20T02:30:53;102772.70;;;13.21;80.44
44044;BME280;29709;52.396;16.796;2023-05-20T02:34:06;102787.39;;;13.22;80.18
44044;BME280;29709;52.396;16.796;2023-05-20T02:37:19;102778.84;;;13.25;80.29
44044;BME280;29709;52.396;16.796;2023-05-20T02:40:33;102790.04;;;13.23;79.49
44044;BME280;29709;52.396;16.796;2023-05-20T02:43:46;102782.88;;;13.21;79.80
44044;BME280;29709;52.396;16.796;2023-05-20T02:46:59;102786.66;;;13.20;79.96
44044;BME280;29709;52.396;16.796;2023-05-20T02:50:12;102788.26;;;13.22;79.69
44044;BME280;29709;52.396;16.796;2023-05-20T02:53:25;102784.52;;;13.23;79.65
44044;BME280;29709;52.396;16.796;2023-05-20T02:56:38;102792.38;;;13.28;79.66
44044;BME280;29709;52.396;16.796;2023-05-20T02:59:52;102793.82;;;13.32;79.33
44044;BME280;29709;52.396;16.796;2023-05-20T03:03:08;102788.45;;;13.31;79.23
44044;BME280;29709;52.396;16.796;2023-05-20T03:06:25;102790.06;;;13.33;79.20
44044;BME280;29709;52.396;16.796;2023-05-20T03:09:38;102795.58;;;13.33;79.48
44044;BME280;29709;52.396;16.796;2023-05-20T03:12:52;102799.98;;;13.36;78.69
44044;BME280;29709;52.396;16.796;2023-05-20T03:16:05;102800.23;;;13.33;78.49
44044;BME280;29709;52.396;16.796;2023-05-20T03:19:18;102807.94;;;13.29;79.07
44044;BME280;29709;52.396;16.796;2023-05-20T03:22:32;102807.66;;;13.32;78.81
44044;BME280;29709;52.396;16.796;2023-05-20T03:25:45;102801.10;;;13.33;78.73
44044;BME280;29709;52.396;16.796;2023-05-20T03:28:59;102796.74;;;13.31;78.65
44044;BME280;29709;52.396;16.796;2023-05-20T03:32:12;102809.39;;;13.33;78.90
44044;BME280;29709;52.396;16.796;2023-05-20T03:35:25;102810.70;;;13.29;78.97
44044;BME280;29709;52.396;16.796;2023-05-20T03:38:38;102813.30;;;13.31;79.21
44044;BME280;29709;52.396;16.796;2023-05-20T03:41:51;102812.16;;;13.33;78.96
44044;BME280;29709;52.396;16.796;2023-05-20T03:45:05;102815.67;;;13.35;78.88
44044;BME280;29709;52.396;16.796;2023-05-20T03:48:18;102812.91;;;13.35;78.93
44044;BME280;29709;52.396;16.796;2023-05-20T03:51:32;102821.05;;;13.37;78.68
44044;BME280;29709;52.396;16.796;2023-05-20T03:54:45;102818.73;;;13.42;78.76
44044;BME280;29709;52.396;16.796;2023-05-20T03:57:58;102827.02;;;13.42;78.47
44044;BME280;29709;52.396;16.796;2023-05-20T04:01:13;102823.39;;;13.41;78.66
44044;BME280;29709;52.396;16.796;2023-05-20T04:04:27;102831.27;;;13.46;78.59
44044;BME280;29709;52.396;16.796;2023-05-20T04:07:40;102833.77;;;13.49;79.18
44044;BME280;29709;52.396;16.796;2023-05-20T04:10:56;102839.28;;;13.49;78.57
44044;BME280;29709;52.396;16.796;2023-05-20T04:14:09;102827.37;;;13.48;78.68
44044;BME280;29709;52.396;16.796;2023-05-20T04:17:22;102832.33;;;13.54;78.56
44044;BME280;29709;52.396;16.796;2023-05-20T04:20:36;102823.05;;;13.55;78.68
44044;BME280;29709;52.396;16.796;2023-05-20T04:23:49;102817.53;;;13.55;78.55
44044;BME280;29709;52.396;16.796;2023-05-20T04:27:02;102819.99;;;13.58;78.67
44044;BME280;29709;52.396;16.796;2023-05-20T04:30:15;102822.33;;;13.63;78.39
44044;BME280;29709;52.396;16.796;2023-05-20T04:33:30;102824.20;;;13.63;78.30
44044;BME280;29709;52.396;16.796;2023-05-20T04:36:44;102809.81;;;13.59;78.53
44044;BME280;29709;52.396;16.796;2023-05-20T04:39:58;102821.27;;;13.54;78.61
44044;BME280;29709;52.396;16.796;2023-05-20T04:43:11;102829.56;;;13.54;78.89
44044;BME280;29709;52.396;16.796;2023-05-20T04:46:24;102826.39;;;13.59;78.65
44044;BME280;29709;52.396;16.796;2023-05-20T04:49:37;102819.42;;;13.65;78.96
44044;BME280;29709;52.396;16.796;2023-05-20T04:52:51;102815.23;;;13.70;78.35
44044;BME280;29709;52.396;16.796;2023-05-20T04:56:04;102817.42;;;13.67;78.42
44044;BME280;29709;52.396;16.796;2023-05-20T04:59:17;102826.72;;;13.66;78.65
44044;BME280;29709;52.396;16.796;2023-05-20T05:02:30;102827.30;;;13.69;78.12
44044;BME280;29709;52.396;16.796;2023-05-20T05:05:44;102812.37;;;13.81;78.24
44044;BME280;29709;52.396;16.796;2023-05-20T05:08:57;102823.74;;;13.88;77.81
44044;BME280;29709;52.396;16.796;2023-05-20T05:12:10;102818.80;;;13.92;77.88
44044;BME280;29709;52.396;16.796;2023-05-20T05:15:24;102824.79;;;13.97;77.40
44044;BME280;29709;52.396;16.796;2023-05-20T05:18:37;102828.98;;;13.91;77.34
44044;BME280;29709;52.396;16.796;2023-05-20T05:21:50;102826.77;;;13.85;77.40
44044;BME280;29709;52.396;16.796;2023-05-20T05:25:04;102826.77;;;13.85;77.69
44044;BME280;29709;52.396;16.796;2023-05-20T05:28:18;102820.98;;;13.88;77.67
44044;BME280;29709;52.396;16.796;2023-05-20T05:31:31;102824.18;;;13.93;77.85
44044;BME280;29709;52.396;16.796;2023-05-20T05:34:44;102823.77;;;13.98;77.51
44044;BME280;29709;52.396;16.796;2023-05-20T05:37:58;102826.66;;;13.96;77.74
44044;BME280;29709;52.396;16.796;2023-05-20T05:41:11;102821.77;;;14.09;77.23
44044;BME280;29709;52.396;16.796;2023-05-20T05:44:24;102824.39;;;14.11;77.17
44044;BME280;29709;52.396;16.796;2023-05-20T05:47:37;102829.34;;;14.07;77.13
44044;BME280;29709;52.396;16.796;2023-05-20T05:50:51;102829.34;;;14.07;76.95
44044;BME280;29709;52.396;16.796;2023-05-20T05:54:04;102825.80;;;14.05;77.07
44044;BME280;29709;52.396;16.796;2023-05-20T05:57:17;102829.73;;;14.03;76.72
44044;BME280;29709;52.396;16.796;2023-05-20T06:00:31;102824.20;;;14.03;77.14
44044;BME280;29709;52.396;16.796;2023-05-20T06:03:44;102819.40;;;14.05;77.17
44044;BME280;29709;52.396;16.796;2023-05-20T06:06:57;102823.66;;;14.09;76.89
44044;BME280;29709;52.396;16.796;2023-05-20T06:10:11;102827.55;;;14.06;76.46
44044;BME280;29709;52.396;16.796;2023-05-20T06:13:24;102829.59;;;14.04;76.62
44044;BME280;29709;52.396;16.796;2023-05-20T06:16:37;102831.08;;;14.08;76.94
44044;BME280;29709;52.396;16.796;2023-05-20T06:19:51;102822.51;;;14.21;76.19
44044;BME280;29709;52.396;16.796;2023-05-20T06:23:04;102832.10;;;14.27;76.63
44044;BME280;29709;52.396;16.796;2023-05-20T06:26:17;102827.04;;;14.32;76.28
44044;BME280;29709;52.396;16.796;2023-05-20T06:29:30;102829.21;;;14.38;76.17
44044;BME280;29709;52.396;16.796;2023-05-20T06:32:44;102828.54;;;14.46;75.95
44044;BME280;29709;52.396;16.796;2023-05-20T06:35:58;102831.46;;;14.54;75.60
44044;BME280;29709;52.396;16.796;2023-05-20T06:39:13;102836.98;;;14.63;74.79
44044;BME280;29709;52.396;16.796;2023-05-20T06:42:27;102840.77;;;14.53;75.09
44044;BME280;29709;52.396;16.796;2023-05-20T06:45:40;102841.36;;;14.56;75.14
44044;BME280;29709;52.396;16.796;2023-05-20T06:48:53;102836.42;;;14.60;74.78
44044;BME280;29709;52.396;16.796;2023-05-20T06:52:06;102834.53;;;14.60;75.08
44044;BME280;29709;52.396;16.796;2023-05-20T06:55:20;102834.23;;;14.73;75.23
44044;BME280;29709;52.396;16.796;2023-05-20T06:58:33;102829.26;;;14.86;74.46
44044;BME280;29709;52.396;16.796;2023-05-20T07:01:46;102822.98;;;15.04;74.07
44044;BME280;29709;52.396;16.796;2023-05-20T07:04:59;102817.84;;;15.18;73.55
44044;BME280;29709;52.396;16.796;2023-05-20T07:08:12;102813.61;;;15.24;73.12
44044;BME280;29709;52.396;16.796;2023-05-20T07:11:25;102801.34;;;15.26;73.22
44044;BME280;29709;52.396;16.796;2023-05-20T07:14:38;102802.30;;;15.45;72.56
44044;BME280;29709;52.396;16.796;2023-05-20T07:17:51;102796.34;;;15.40;72.45
44044;BME280;29709;52.396;16.796;2023-05-20T07:21:05;102791.63;;;15.50;72.11
44044;BME280;29709;52.396;16.796;2023-05-20T07:24:18;102792.92;;;15.65;72.15
44044;BME280;29709;52.396;16.796;2023-05-20T07:27:31;102786.74;;;15.71;71.34
44044;BME280;29709;52.396;16.796;2023-05-20T07:30:45;102786.59;;;15.73;71.49
44044;BME280;29709;52.396;16.796;2023-05-20T07:34:02;102784.51;;;15.84;71.26
44044;BME280;29709;52.396;16.796;2023-05-20T07:37:15;102783.48;;;15.85;70.84
44044;BME280;29709;52.396;16.796;2023-05-20T07:40:28;102785.06;;;15.88;69.97
44044;BME280;29709;52.396;16.796;2023-05-20T07:43:41;102785.06;;;15.88;70.40
44044;BME280;29709;52.396;16.796;2023-05-20T07:46:54;102776.37;;;16.01;70.02
44044;BME280;29709;52.396;16.796;2023-05-20T07:50:08;102783.13;;;16.16;70.18
44044;BME280;29709;52.396;16.796;2023-05-20T07:53:21;102783.52;;;16.21;69.17
44044;BME280;29709;52.396;16.796;2023-05-20T07:56:34;102784.31;;;16.31;69.46
44044;BME280;29709;52.396;16.796;2023-05-20T07:59:48;102780.84;;;16.47;69.02
44044;BME280;29709;52.396;16.796;2023-05-20T08:03:01;102778.20;;;16.63;69.49
44044;BME280;29709;52.396;16.796;2023-05-20T08:06:14;102778.93;;;16.83;67.72
44044;BME280;29709;52.396;16.796;2023-05-20T08:09:29;102769.23;;;16.87;67.28
44044;BME280;29709;52.396;16.796;2023-05-20T08:12:45;102762.17;;;16.93;67.09
44044;BME280;29709;52.396;16.796;2023-05-20T08:15:58;102754.66;;;17.11;66.58
44044;BME280;29709;52.396;16.796;2023-05-20T08:19:11;102759.59;;;17.25;65.97
44044;BME280;29709;52.396;16.796;2023-05-20T08:22:25;102746.41;;;17.27;65.46
44044;BME280;29709;52.396;16.796;2023-05-20T08:28:09;102754.76;;;17.62;65.03
44044;BME280;29709;52.396;16.796;2023-05-20T08:31:22;102753.03;;;17.69;65.43
44044;BME280;29709;52.396;16.796;2023-05-20T08:34:36;102756.71;;;17.69;63.98
44044;BME280;29709;52.396;16.796;2023-05-20T08:37:50;102748.62;;;17.92;65.28
44044;BME280;29709;52.396;16.796;2023-05-20T08:41:05;102747.28;;;18.12;63.68
44044;BME280;29709;52.396;16.796;2023-05-20T08:44:21;102749.39;;;18.18;64.04
44044;BME280;29709;52.396;16.796;2023-05-20T08:47:40;102750.95;;;18.21;63.89
44044;BME280;29709;52.396;16.796;2023-05-20T08:50:56;102742.10;;;18.26;63.59
44044;BME280;29709;52.396;16.796;2023-05-20T08:54:12;102741.41;;;18.24;62.90
44044;BME280;29709;52.396;16.796;2023-05-20T08:57:28;102740.86;;;18.20;63.18
44044;BME280;29709;52.396;16.796;2023-05-20T09:00:41;102737.91;;;18.30;63.63
44044;BME280;29709;52.396;16.796;2023-05-20T09:03:56;102742.27;;;18.40;63.24
44044;BME280;29709;52.396;16.796;2023-05-20T09:07:09;102733.42;;;18.45;63.36
44044;BME280;29709;52.396;16.796;2023-05-20T09:10:23;102744.05;;;18.58;62.97
44044;BME280;29709;52.396;16.796;2023-05-20T09:13:36;102747.56;;;18.68;62.58
44044;BME280;29709;52.396;16.796;2023-05-20T09:16:49;102736.01;;;18.63;62.09
44044;BME280;29709;52.396;16.796;2023-05-20T09:20:09;102756.40;;;18.47;61.80
44044;BME280;29709;52.396;16.796;2023-05-20T09:23:23;102752.75;;;18.46;62.56
44044;BME280;29709;52.396;16.796;2023-05-20T09:26:41;102745.41;;;18.54;62.34
44044;BME280;29709;52.396;16.796;2023-05-20T09:29:55;102742.28;;;18.49;62.68
44044;BME280;29709;52.396;16.796;2023-05-20T09:33:10;102740.02;;;18.52;62.42
44044;BME280;29709;52.396;16.796;2023-05-20T09:36:27;102746.68;;;18.67;62.61
44044;BME280;29709;52.396;16.796;2023-05-20T09:39:48;102743.18;;;18.57;62.62
44044;BME280;29709;52.396;16.796;2023-05-20T09:43:05;102735.50;;;18.51;61.58
44044;BME280;29709;52.396;16.796;2023-05-20T09:46:23;102737.07;;;18.37;62.75
44044;BME280;29709;52.396;16.796;2023-05-20T09:49:38;102739.69;;;18.47;62.30
44044;BME280;29709;52.396;16.796;2023-05-20T09:52:54;102740.20;;;18.51;62.21
44044;BME280;29709;52.396;16.796;2023-05-20T09:56:07;102742.31;;;18.57;62.57
44044;BME280;29709;52.396;16.796;2023-05-20T09:59:21;102731.16;;;18.49;62.58
44044;BME280;29709;52.396;16.796;2023-05-20T10:02:36;102744.90;;;18.42;62.54
44044;BME280;29709;52.396;16.796;2023-05-20T10:12:51;102729.76;;;18.61;62.80
44044;BME280;29709;52.396;16.796;2023-05-20T10:19:36;102722.30;;;18.78;62.55
44044;BME280;29709;52.396;16.796;2023-05-20T10:22:56;102723.17;;;18.86;62.30
44044;BME280;29709;52.396;16.796;2023-05-20T10:26:10;102717.06;;;18.74;62.48
44044;BME280;29709;52.396;16.796;2023-05-20T10:29:23;102711.30;;;18.84;62.02
44044;BME280;29709;52.396;16.796;2023-05-20T10:32:36;102709.36;;;19.01;62.15
44044;BME280;29709;52.396;16.796;2023-05-20T10:35:51;102702.36;;;19.13;61.94
44044;BME280;29709;52.396;16.796;2023-05-20T10:39:04;102694.84;;;19.30;61.23
44044;BME280;29709;52.396;16.796;2023-05-20T10:45:48;102690.30;;;19.29;61.62
44044;BME280;29709;52.396;16.796;2023-05-20T10:49:02;102692.98;;;19.62;60.97
44044;BME280;29709;52.396;16.796;2023-05-20T10:52:17;102701.70;;;19.89;60.69
44044;BME280;29709;52.396;16.796;2023-05-20T10:55:37;102698.27;;;19.79;58.44
44044;BME280;29709;52.396;16.796;2023-05-20T10:58:52;102697.70;;;19.53;59.48
44044;BME280;29709;52.396;16.796;2023-05-20T11:02:07;102690.37;;;19.52;60.31
44044;BME280;29709;52.396;16.796;2023-05-20T11:05:25;102683.86;;;19.68;60.30
44044;BME280;29709;52.396;16.796;2023-05-20T11:08:39;102688.11;;;19.86;58.73
44044;BME280;29709;52.396;16.796;2023-05-20T11:11:53;102688.45;;;19.92;58.29
44044;BME280;29709;52.396;16.796;2023-05-20T11:15:10;102682.73;;;19.85;59.12
44044;BME280;29709;52.396;16.796;2023-05-20T11:18:28;102682.45;;;20.03;58.99
44044;BME280;29709;52.396;16.796;2023-05-20T11:21:44;102674.50;;;20.14;58.70
44044;BME280;29709;52.396;16.796;2023-05-20T11:24:58;102670.16;;;20.35;58.72
44044;BME280;29709;52.396;16.796;2023-05-20T11:28:14;102662.35;;;20.53;58.73
44044;BME280;29709;52.396;16.796;2023-05-20T11:31:28;102658.03;;;20.65;57.59
44044;BME280;29709;52.396;16.796;2023-05-20T11:34:41;102649.57;;;20.88;57.25
44044;BME280;29709;52.396;16.796;2023-05-20T11:41:15;102647.53;;;20.82;56.86
44044;BME280;29709;52.396;16.796;2023-05-20T11:44:28;102648.12;;;20.92;57.01
44044;BME280;29709;52.396;16.796;2023-05-20T11:47:41;102636.01;;;21.29;56.29
44044;BME280;29709;52.396;16.796;2023-05-20T11:50:56;102648.81;;;21.39;55.29
44044;BME280;29709;52.396;16.796;2023-05-20T11:54:09;102644.96;;;21.40;54.96
44044;BME280;29709;52.396;16.796;2023-05-20T11:57:23;102655.16;;;21.03;54.84
44044;BME280;29709;52.396;16.796;2023-05-20T12:00:36;102637.89;;;21.14;56.18
44044;BME280;29709;52.396;16.796;2023-05-20T12:03:50;102622.48;;;21.48;56.09
44044;BME280;29709;52.396;16.796;2023-05-20T12:07:04;102636.85;;;21.81;55.43
44044;BME280;29709;52.396;16.796;2023-05-20T12:10:22;102628.05;;;22.05;54.18
44044;BME280;29709;52.396;16.796;2023-05-20T12:13:36;102632.57;;;21.85;53.17
44044;BME280;29709;52.396;16.796;2023-05-20T12:16:49;102638.44;;;21.69;53.34
44044;BME280;29709;52.396;16.796;2023-05-20T12:20:06;102627.27;;;21.54;55.20
44044;BME280;29709;52.396;16.796;2023-05-20T12:23:19;102632.12;;;21.81;54.77
44044;BME280;29709;52.396;16.796;2023-05-20T12:26:33;102625.77;;;21.73;53.56
44044;BME280;29709;52.396;16.796;2023-05-20T12:29:47;102617.38;;;21.73;53.89
44044;BME280;29709;52.396;16.796;2023-05-20T12:33:00;102613.07;;;21.55;55.25
44044;BME280;29709;52.396;16.796;2023-05-20T12:36:14;102607.05;;;21.73;54.83
44044;BME280;29709;52.396;16.796;2023-05-20T12:39:28;102608.77;;;21.74;53.95
44044;BME280;29709;52.396;16.796;2023-05-20T12:42:43;102598.57;;;21.88;54.28
44044;BME280;29709;52.396;16.796;2023-05-20T12:45:56;102598.85;;;21.93;54.58
44044;BME280;29709;52.396;16.796;2023-05-20T12:49:09;102587.00;;;21.91;54.08
44044;BME280;29709;52.396;16.796;2023-05-20T12:52:24;102581.08;;;21.79;54.12
44044;BME280;29709;52.396;16.796;2023-05-20T12:55:37;102586.67;;;21.79;54.19
44044;BME280;29709;52.396;16.796;2023-05-20T12:58:51;102581.62;;;21.89;54.53
44044;BME280;29709;52.396;16.796;2023-05-20T13:02:05;102588.10;;;22.11;54.22
44044;BME280;29709;52.396;16.796;2023-05-20T13:05:18;102572.84;;;22.42;53.83
44044;BME280;29709;52.396;16.796;2023-05-20T13:08:32;102584.14;;;22.55;52.71
44044;BME280;29709;52.396;16.796;2023-05-20T13:11:45;102568.69;;;22.38;52.81
44044;BME280;29709;52.396;16.796;2023-05-20T13:14:58;102567.80;;;22.31;53.05
44044;BME280;29709;52.396;16.796;2023-05-20T13:18:12;102573.33;;;22.24;53.63
44044;BME280;29709;52.396;16.796;2023-05-20T13:21:28;102563.60;;;22.48;52.82
44044;BME280;29709;52.396;16.796;2023-05-20T13:24:41;102560.42;;;22.58;53.00
44044;BME280;29709;52.396;16.796;2023-05-20T13:27:54;102558.05;;;22.55;52.58
44044;BME280;29709;52.396;16.796;2023-05-20T13:31:07;102557.10;;;22.75;53.08
44044;BME280;29709;52.396;16.796;2023-05-20T13:34:21;102546.05;;;23.02;53.22
44044;BME280;29709;52.396;16.796;2023-05-20T13:37:34;102549.79;;;23.16;51.42
44044;BME280;29709;52.396;16.796;2023-05-20T13:40:47;102540.65;;;22.94;52.13
44044;BME280;29709;52.396;16.796;2023-05-20T13:44:01;102537.84;;;22.94;52.48
44044;BME280;29709;52.396;16.796;2023-05-20T13:47:15;102537.84;;;23.00;52.99
44044;BME280;29709;52.396;16.796;2023-05-20T13:50:28;102533.36;;;23.06;51.61
44044;BME280;29709;52.396;16.796;2023-05-20T13:53:41;102528.23;;;22.82;51.24
44044;BME280;29709;52.396;16.796;2023-05-20T13:56:54;102526.70;;;22.72;52.53
44044;BME280;29709;52.396;16.796;2023-05-20T14:00:09;102527.75;;;22.71;52.21
44044;BME280;29709;52.396;16.796;2023-05-20T14:03:22;102519.47;;;22.57;52.95
44044;BME280;29709;52.396;16.796;2023-05-20T14:06:35;102511.83;;;22.72;52.70
44044;BME280;29709;52.396;16.796;2023-05-20T14:09:48;102512.98;;;22.91;52.70
44044;BME280;29709;52.396;16.796;2023-05-20T14:13:01;102510.88;;;22.99;51.48
44044;BME280;29709;52.396;16.796;2023-05-20T14:16:15;102506.99;;;22.94;51.71
44044;BME280;29709;52.396;16.796;2023-05-20T14:19:28;102501.39;;;22.94;51.91
44044;BME280;29709;52.396;16.796;2023-05-20T14:22:42;102514.08;;;22.90;52.00
44044;BME280;29709;52.396;16.796;2023-05-20T14:25:55;102504.14;;;22.87;52.20
44044;BME280;29709;52.396;16.796;2023-05-20T14:29:08;102499.01;;;22.97;52.21
44044;BME280;29709;52.396;16.796;2023-05-20T14:32:22;102502.72;;;23.11;51.92
44044;BME280;29709;52.396;16.796;2023-05-20T14:35:35;102502.50;;;23.13;51.50
44044;BME280;29709;52.396;16.796;2023-05-20T14:38:48;102497.12;;;23.04;51.51
44044;BME280;29709;52.396;16.796;2023-05-20T14:42:02;102497.77;;;23.13;52.25
44044;BME280;29709;52.396;16.796;2023-05-20T14:45:15;102494.16;;;23.26;51.82
44044;BME280;29709;52.396;16.796;2023-05-20T14:48:29;102490.95;;;23.36;52.28
44044;BME280;29709;52.396;16.796;2023-05-20T14:51:42;102488.33;;;23.34;51.74
44044;BME280;29709;52.396;16.796;2023-05-20T14:54:55;102475.43;;;23.46;51.57
44044;BME280;29709;52.396;16.796;2023-05-20T14:58:08;102476.67;;;23.30;51.58
44044;BME280;29709;52.396;16.796;2023-05-20T15:01:22;102486.59;;;23.33;52.32
44044;BME280;29709;52.396;16.796;2023-05-20T15:04:35;102485.77;;;23.39;51.58
44044;BME280;29709;52.396;16.796;2023-05-20T15:07:49;102477.56;;;23.38;51.36
44044;BME280;29709;52.396;16.796;2023-05-20T15:11:03;102475.43;;;23.46;51.71
44044;BME280;29709;52.396;16.796;2023-05-20T15:14:16;102467.64;;;23.55;51.91
44044;BME280;29709;52.396;16.796;2023-05-20T15:17:29;102459.24;;;23.48;50.79
44044;BME280;29709;52.396;16.796;2023-05-20T15:20:42;102460.73;;;23.38;51.61
44044;BME280;29709;52.396;16.796;2023-05-20T15:23:56;102454.21;;;23.24;51.68
44044;BME280;29709;52.396;16.796;2023-05-20T15:27:09;102442.97;;;23.04;52.61
44044;BME280;29709;52.396;16.796;2023-05-20T15:30:23;102438.22;;;23.04;53.23
44044;BME280;29709;52.396;16.796;2023-05-20T15:33:36;102427.65;;;23.13;53.21
44044;BME280;29709;52.396;16.796;2023-05-20T15:36:49;102430.51;;;23.26;53.44
44044;BME280;29709;52.396;16.796;2023-05-20T15:40:02;102436.77;;;23.28;53.35
44044;BME280;29709;52.396;16.796;2023-05-20T15:43:16;102435.48;;;23.24;53.51
44044;BME280;29709;52.396;16.796;2023-05-20T15:46:30;102429.17;;;23.22;53.48
44044;BME280;29709;52.396;16.796;2023-05-20T15:49:43;102427.65;;;23.13;53.62
44044;BME280;29709;52.396;16.796;2023-05-20T15:52:57;102420.07;;;23.00;54.41
44044;BME280;29709;52.396;16.796;2023-05-20T15:56:10;102423.52;;;23.02;54.65
44044;BME280;29709;52.396;16.796;2023-05-20T15:59:24;102419.02;;;23.08;55.04
44044;BME280;29709;52.396;16.796;2023-05-20T16:02:37;102417.97;;;23.16;54.32
44044;BME280;29709;52.396;16.796;2023-05-20T16:05:52;102414.52;;;23.14;54.16
44044;BME280;29709;52.396;16.796;2023-05-20T16:09:06;102412.77;;;23.06;54.26
44044;BME280;29709;52.396;16.796;2023-05-20T16:12:19;102399.61;;;23.07;54.81
44044;BME280;29709;52.396;16.796;2023-05-20T16:15:33;102402.41;;;23.07;54.83
44044;BME280;29709;52.396;16.796;2023-05-20T16:18:49;102401.77;;;23.04;54.89
44044;BME280;29709;52.396;16.796;2023-05-20T16:22:04;102399.58;;;23.00;54.49
44044;BME280;29709;52.396;16.796;2023-05-20T16:25:17;102399.15;;;23.03;55.31
44044;BME280;29709;52.396;16.796;2023-05-20T16:28:31;102399.15;;;23.03;55.12
44044;BME280;29709;52.396;16.796;2023-05-20T16:31:44;102398.34;;;23.16;55.34
44044;BME280;29709;52.396;16.796;2023-05-20T16:34:58;102394.88;;;23.20;54.62
44044;BME280;29709;52.396;16.796;2023-05-20T16:38:13;102395.31;;;23.17;54.74
44044;BME280;29709;52.396;16.796;2023-05-20T16:41:27;102397.68;;;23.20;55.14
44044;BME280;29709;52.396;16.796;2023-05-20T16:44:40;102397.25;;;23.23;54.87
44044;BME280;29709;52.396;16.796;2023-05-20T16:47:53;102402.67;;;23.25;54.89
44044;BME280;29709;52.396;16.796;2023-05-20T16:51:08;102406.96;;;23.21;55.13
44044;BME280;29709;52.396;16.796;2023-05-20T16:54:21;102402.64;;;23.18;55.38
44044;BME280;29709;52.396;16.796;2023-05-20T16:57:35;102399.41;;;23.21;55.57
44044;BME280;29709;52.396;16.796;2023-05-20T17:00:48;102400.48;;;23.20;54.84